METAR Data
IDs: Format: Raw Decoded Include TAF

Data at: 1634 UTC 19 Sep 2018

KSOP 191556Z AUTO 30006KT 10SM CLR 29/19 A3000 RMK AO2 SLP169 T02940189
KSOP 191456Z AUTO 00000KT 10SM CLR 28/21 A3001 RMK AO2 SLP173 T02830206 51011
KSOP 191356Z AUTO VRB03KT 10SM CLR 25/20 A3000 RMK AO2 SLP171 T02500200
KSOP 191256Z AUTO VRB03KT 10SM CLR 23/20 A2999 RMK AO2 SLP168 T02280200
KSOP 191156Z AUTO 00000KT 10SM CLR 20/19 A2998 RMK AO2 SLP163 T02000194 10211 20183 53018
KSOP 191056Z AUTO 28003KT 10SM CLR 18/18 A2996 RMK AO2 SLP156 T01830183
KSOP 190956Z AUTO 00000KT 10SM CLR 19/19 A2994 RMK AO2 SLP150 T01890189
KSOP 190856Z AUTO 32003KT 10SM CLR 20/19 A2993 RMK AO2 SLP144 T02000194 55000
KSOP 190756Z AUTO 00000KT 10SM CLR 20/20 A2992 RMK AO2 SLP143 T02000200
KSOP 190656Z AUTO 32003KT 10SM CLR 21/20 A2993 RMK AO2 SLP144 T02060200
KSOP 190556Z AUTO 32003KT 10SM CLR 21/21 A2993 RMK AO2 SLP144 T02060206 10250 20206 50001
KSOP 190456Z AUTO 00000KT 10SM CLR 22/21 A2993 RMK AO2 SLP145 T02170211
KSOP 190356Z AUTO 00000KT 10SM CLR 22/22 A2993 RMK AO2 SLP145 T02170217 403170217
KSOP 190256Z AUTO 00000KT 10SM SCT060 BKN075 22/22 A2992 RMK AO2 SLP142 T02220222 53013
KSOP 190156Z AUTO 00000KT 10SM CLR 23/23 A2991 RMK AO2 SLP138 T02280228
KSOP 190056Z AUTO 00000KT 10SM CLR 24/23 A2990 RMK AO2 SLP134 T02390228
KSOP 182356Z AUTO 00000KT 10SM CLR 25/23 A2989 RMK AO2 SLP131 T02500233 10317 20250 51005
KSOP 182256Z AUTO 00000KT 10SM CLR 28/23 A2988 RMK AO2 SLP129 T02830228
KSOP 182156Z AUTO 00000KT 10SM CLR 29/22 A2988 RMK AO2 SLP126 T02890217
KSOP 182056Z AUTO VRB03KT 10SM FEW055 29/21 A2987 RMK AO2 SLP124 T02940211 55008
KSOP 181956Z AUTO 32004KT 10SM BKN045 BKN070 29/22 A2987 RMK AO2 SLP124 T02890217
KSOP 181856Z AUTO VRB04KT 10SM FEW046 SCT055 OVC080 30/21 A2988 RMK AO2 SLP126 T03000211
KSOP 181756Z AUTO 27006KT 10SM FEW085 31/21 A2989 RMK AO2 SLP131 T03060211 10311 20228 58013